sensor_id;sensor_type;location;lat;lon;timestamp;pressure;altitude;pressure_sealevel;temperature
67501;BMP180;54349;52.528;19.760;2023-02-28T00:01:33;102113.60;;;21.40
67501;BMP180;54349;52.528;19.760;2023-02-28T00:04:01;102108.80;;;21.40
67501;BMP180;54349;52.528;19.760;2023-02-28T00:06:30;102110.80;;;21.40
67501;BMP180;54349;52.528;19.760;2023-02-28T00:08:58;102118.40;;;21.40
67501;BMP180;54349;52.528;19.760;2023-02-28T00:11:26;102114.80;;;21.40
67501;BMP180;54349;52.528;19.760;2023-02-28T00:13:55;102121.40;;;21.40
67501;BMP180;54349;52.528;19.760;2023-02-28T00:16:23;102119.80;;;21.40
67501;BMP180;54349;52.528;19.760;2023-02-28T00:18:52;102118.00;;;21.40
67501;BMP180;54349;52.528;19.760;2023-02-28T00:21:20;102121.20;;;21.40
67501;BMP180;54349;52.528;19.760;2023-02-28T00:23:48;102119.40;;;21.40
67501;BMP180;54349;52.528;19.760;2023-02-28T00:26:16;102118.20;;;21.42
67501;BMP180;54349;52.528;19.760;2023-02-28T00:28:48;102120.60;;;21.40
67501;BMP180;54349;52.528;19.760;2023-02-28T00:31:17;102121.00;;;21.42
67501;BMP180;54349;52.528;19.760;2023-02-28T00:33:45;102122.20;;;21.48
67501;BMP180;54349;52.528;19.760;2023-02-28T00:36:14;102120.00;;;21.46
67501;BMP180;54349;52.528;19.760;2023-02-28T00:38:43;102124.00;;;21.48
67501;BMP180;54349;52.528;19.760;2023-02-28T00:41:11;102122.00;;;21.50
67501;BMP180;54349;52.528;19.760;2023-02-28T00:43:40;102124.60;;;21.50
67501;BMP180;54349;52.528;19.760;2023-02-28T00:46:08;102121.00;;;21.50
67501;BMP180;54349;52.528;19.760;2023-02-28T00:48:36;102126.80;;;21.50
67501;BMP180;54349;52.528;19.760;2023-02-28T00:51:05;102125.60;;;21.50
67501;BMP180;54349;52.528;19.760;2023-02-28T00:53:33;102129.00;;;21.50
67501;BMP180;54349;52.528;19.760;2023-02-28T00:56:03;102125.20;;;21.50
67501;BMP180;54349;52.528;19.760;2023-02-28T00:58:31;102129.00;;;21.50
67501;BMP180;54349;52.528;19.760;2023-02-28T01:01:00;102127.20;;;21.50
67501;BMP180;54349;52.528;19.760;2023-02-28T01:03:28;102126.20;;;21.50
67501;BMP180;54349;52.528;19.760;2023-02-28T01:05:56;102124.80;;;21.50
67501;BMP180;54349;52.528;19.760;2023-02-28T01:08:25;102125.40;;;21.50
67501;BMP180;54349;52.528;19.760;2023-02-28T01:10:55;102125.40;;;21.50
67501;BMP180;54349;52.528;19.760;2023-02-28T01:13:23;102122.80;;;21.46
67501;BMP180;54349;52.528;19.760;2023-02-28T01:15:55;102124.40;;;21.40
67501;BMP180;54349;52.528;19.760;2023-02-28T01:18:25;102121.20;;;21.40
67501;BMP180;54349;52.528;19.760;2023-02-28T01:20:54;102125.60;;;21.30
67501;BMP180;54349;52.528;19.760;2023-02-28T01:23:23;102126.60;;;21.30
67501;BMP180;54349;52.528;19.760;2023-02-28T01:25:52;102122.40;;;21.20
67501;BMP180;54349;52.528;19.760;2023-02-28T01:28:21;102118.40;;;21.20
67501;BMP180;54349;52.528;19.760;2023-02-28T01:30:50;102122.60;;;21.20
67501;BMP180;54349;52.528;19.760;2023-02-28T01:33:19;102120.60;;;21.10
67501;BMP180;54349;52.528;19.760;2023-02-28T01:35:48;102124.40;;;21.10
67501;BMP180;54349;52.528;19.760;2023-02-28T01:38:16;102126.20;;;21.08
67501;BMP180;54349;52.528;19.760;2023-02-28T01:40:50;102131.40;;;21.00
67501;BMP180;54349;52.528;19.760;2023-02-28T01:43:27;102124.40;;;21.00
67501;BMP180;54349;52.528;19.760;2023-02-28T01:45:58;102127.00;;;20.92
67501;BMP180;54349;52.528;19.760;2023-02-28T01:48:32;102123.40;;;20.90
67501;BMP180;54349;52.528;19.760;2023-02-28T01:51:09;102125.60;;;20.90
67501;BMP180;54349;52.528;19.760;2023-02-28T01:53:46;102127.20;;;20.80
67501;BMP180;54349;52.528;19.760;2023-02-28T01:56:23;102119.80;;;20.80
67501;BMP180;54349;52.528;19.760;2023-02-28T01:58:54;102125.40;;;20.80
67501;BMP180;54349;52.528;19.760;2023-02-28T02:01:26;102123.40;;;20.70
67501;BMP180;54349;52.528;19.760;2023-02-28T02:04:00;102118.80;;;20.70
67501;BMP180;54349;52.528;19.760;2023-02-28T02:06:36;102118.60;;;20.70
67501;BMP180;54349;52.528;19.760;2023-02-28T02:09:07;102113.20;;;20.60
67501;BMP180;54349;52.528;19.760;2023-02-28T02:11:36;102115.40;;;20.60
67501;BMP180;54349;52.528;19.760;2023-02-28T02:14:35;102114.60;;;20.60
67501;BMP180;54349;52.528;19.760;2023-02-28T02:17:22;102113.00;;;20.50
67501;BMP180;54349;52.528;19.760;2023-02-28T02:20:46;102117.20;;;20.50
67501;BMP180;54349;52.528;19.760;2023-02-28T02:24:11;102121.60;;;20.50
67501;BMP180;54349;52.528;19.760;2023-02-28T02:30:32;102120.20;;;20.40
67501;BMP180;54349;52.528;19.760;2023-02-28T02:36:22;102118.60;;;20.30
67501;BMP180;54349;52.528;19.760;2023-02-28T02:39:04;102122.60;;;20.30
67501;BMP180;54349;52.528;19.760;2023-02-28T02:41:45;102122.40;;;20.30
67501;BMP180;54349;52.528;19.760;2023-02-28T02:44:24;102117.40;;;20.20
67501;BMP180;54349;52.528;19.760;2023-02-28T02:47:14;102117.40;;;20.20
67501;BMP180;54349;52.528;19.760;2023-02-28T02:49:51;102114.40;;;20.20
67501;BMP180;54349;52.528;19.760;2023-02-28T02:52:27;102119.40;;;20.20
67501;BMP180;54349;52.528;19.760;2023-02-28T02:55:00;102117.00;;;20.10
67501;BMP180;54349;52.528;19.760;2023-02-28T02:57:38;102123.80;;;20.10
67501;BMP180;54349;52.528;19.760;2023-02-28T03:00:09;102119.60;;;20.10
67501;BMP180;54349;52.528;19.760;2023-02-28T03:02:40;102121.40;;;20.10
67501;BMP180;54349;52.528;19.760;2023-02-28T03:05:41;102119.40;;;20.04
67501;BMP180;54349;52.528;19.760;2023-02-28T03:08:10;102121.00;;;20.00
67501;BMP180;54349;52.528;19.760;2023-02-28T03:10:42;102124.40;;;20.00
67501;BMP180;54349;52.528;19.760;2023-02-28T03:16:28;102118.40;;;19.92
67501;BMP180;54349;52.528;19.760;2023-02-28T03:22:14;102116.40;;;19.90
67501;BMP180;54349;52.528;19.760;2023-02-28T03:25:09;102124.20;;;19.84
67501;BMP180;54349;52.528;19.760;2023-02-28T03:28:01;102123.80;;;19.80
67501;BMP180;54349;52.528;19.760;2023-02-28T03:30:47;102120.00;;;19.80
67501;BMP180;54349;52.528;19.760;2023-02-28T03:33:28;102124.20;;;19.80
67501;BMP180;54349;52.528;19.760;2023-02-28T03:36:05;102129.40;;;19.80
67501;BMP180;54349;52.528;19.760;2023-02-28T03:38:45;102131.80;;;19.72
67501;BMP180;54349;52.528;19.760;2023-02-28T03:41:19;102125.00;;;19.70
67501;BMP180;54349;52.528;19.760;2023-02-28T03:44:23;102130.60;;;19.70
67501;BMP180;54349;52.528;19.760;2023-02-28T03:47:17;102135.00;;;19.70
67501;BMP180;54349;52.528;19.760;2023-02-28T03:50:03;102136.20;;;19.70
67501;BMP180;54349;52.528;19.760;2023-02-28T03:52:42;102138.40;;;19.66
67501;BMP180;54349;52.528;19.760;2023-02-28T03:55:16;102139.80;;;19.60
67501;BMP180;54349;52.528;19.760;2023-02-28T04:01:00;102136.20;;;19.60
67501;BMP180;54349;52.528;19.760;2023-02-28T04:03:38;102130.40;;;19.56
67501;BMP180;54349;52.528;19.760;2023-02-28T04:06:14;102135.20;;;19.50
67501;BMP180;54349;52.528;19.760;2023-02-28T04:08:43;102132.80;;;19.50
67501;BMP180;54349;52.528;19.760;2023-02-28T04:11:19;102138.20;;;19.40
67501;BMP180;54349;52.528;19.760;2023-02-28T04:13:48;102138.60;;;19.40
67501;BMP180;54349;52.528;19.760;2023-02-28T04:16:17;102138.80;;;19.40
67501;BMP180;54349;52.528;19.760;2023-02-28T04:19:07;102137.20;;;19.30
67501;BMP180;54349;52.528;19.760;2023-02-28T04:21:42;102135.20;;;19.30
67501;BMP180;54349;52.528;19.760;2023-02-28T04:24:14;102142.20;;;19.30
67501;BMP180;54349;52.528;19.760;2023-02-28T04:26:46;102142.00;;;19.24
67501;BMP180;54349;52.528;19.760;2023-02-28T04:29:31;102145.40;;;19.20
67501;BMP180;54349;52.528;19.760;2023-02-28T04:32:03;102149.00;;;19.20
67501;BMP180;54349;52.528;19.760;2023-02-28T04:34:32;102153.40;;;19.20
67501;BMP180;54349;52.528;19.760;2023-02-28T04:37:00;102149.20;;;19.20
67501;BMP180;54349;52.528;19.760;2023-02-28T04:39:41;102148.60;;;19.20
67501;BMP180;54349;52.528;19.760;2023-02-28T04:42:11;102149.00;;;19.20
67501;BMP180;54349;52.528;19.760;2023-02-28T04:44:39;102149.00;;;19.30
67501;BMP180;54349;52.528;19.760;2023-02-28T04:47:07;102153.20;;;19.40
67501;BMP180;54349;52.528;19.760;2023-02-28T04:49:35;102148.20;;;19.50
67501;BMP180;54349;52.528;19.760;2023-02-28T04:52:03;102146.40;;;19.58
67501;BMP180;54349;52.528;19.760;2023-02-28T04:54:32;102151.60;;;19.66
67501;BMP180;54349;52.528;19.760;2023-02-28T04:57:00;102152.20;;;19.72
67501;BMP180;54349;52.528;19.760;2023-02-28T04:59:29;102149.40;;;19.80
67501;BMP180;54349;52.528;19.760;2023-02-28T05:01:57;102154.00;;;19.88
67501;BMP180;54349;52.528;19.760;2023-02-28T05:04:25;102154.60;;;19.90
67501;BMP180;54349;52.528;19.760;2023-02-28T05:06:53;102158.00;;;20.00
67501;BMP180;54349;52.528;19.760;2023-02-28T05:09:23;102162.00;;;20.10
67501;BMP180;54349;52.528;19.760;2023-02-28T05:11:51;102170.20;;;20.20
67501;BMP180;54349;52.528;19.760;2023-02-28T05:14:19;102169.80;;;20.20
67501;BMP180;54349;52.528;19.760;2023-02-28T05:16:47;102174.20;;;20.32
67501;BMP180;54349;52.528;19.760;2023-02-28T05:19:15;102173.80;;;20.40
67501;BMP180;54349;52.528;19.760;2023-02-28T05:21:52;102173.20;;;20.40
67501;BMP180;54349;52.528;19.760;2023-02-28T05:24:21;102173.40;;;20.56
67501;BMP180;54349;52.528;19.760;2023-02-28T05:26:54;102176.20;;;20.60
67501;BMP180;54349;52.528;19.760;2023-02-28T05:29:22;102175.20;;;20.60
67501;BMP180;54349;52.528;19.760;2023-02-28T05:31:50;102178.00;;;20.70
67501;BMP180;54349;52.528;19.760;2023-02-28T05:34:18;102186.80;;;20.80
67501;BMP180;54349;52.528;19.760;2023-02-28T05:36:46;102188.40;;;20.80
67501;BMP180;54349;52.528;19.760;2023-02-28T05:39:14;102189.20;;;20.90
67501;BMP180;54349;52.528;19.760;2023-02-28T05:41:43;102187.40;;;20.90
67501;BMP180;54349;52.528;19.760;2023-02-28T05:44:12;102196.00;;;21.00
67501;BMP180;54349;52.528;19.760;2023-02-28T05:46:40;102200.00;;;21.02
67501;BMP180;54349;52.528;19.760;2023-02-28T05:49:08;102200.20;;;21.10
67501;BMP180;54349;52.528;19.760;2023-02-28T05:51:37;102199.40;;;21.10
67501;BMP180;54349;52.528;19.760;2023-02-28T05:54:07;102205.00;;;21.20
67501;BMP180;54349;52.528;19.760;2023-02-28T05:56:36;102209.60;;;21.20
67501;BMP180;54349;52.528;19.760;2023-02-28T05:59:06;102211.60;;;21.28
67501;BMP180;54349;52.528;19.760;2023-02-28T06:01:42;102208.80;;;21.30
67501;BMP180;54349;52.528;19.760;2023-02-28T06:04:19;102211.60;;;21.20
67501;BMP180;54349;52.528;19.760;2023-02-28T06:06:59;102217.00;;;21.30
67501;BMP180;54349;52.528;19.760;2023-02-28T06:09:27;102219.00;;;21.30
67501;BMP180;54349;52.528;19.760;2023-02-28T06:11:59;102220.40;;;21.30
67501;BMP180;54349;52.528;19.760;2023-02-28T06:14:27;102220.40;;;21.26
67501;BMP180;54349;52.528;19.760;2023-02-28T06:16:55;102222.00;;;21.28
67501;BMP180;54349;52.528;19.760;2023-02-28T06:19:26;102224.80;;;21.28
67501;BMP180;54349;52.528;19.760;2023-02-28T06:21:56;102224.80;;;21.38
67501;BMP180;54349;52.528;19.760;2023-02-28T06:24:25;102222.40;;;21.40
67501;BMP180;54349;52.528;19.760;2023-02-28T06:26:56;102221.00;;;21.40
67501;BMP180;54349;52.528;19.760;2023-02-28T06:29:25;102218.60;;;21.40
67501;BMP180;54349;52.528;19.760;2023-02-28T06:31:53;102219.40;;;21.40
67501;BMP180;54349;52.528;19.760;2023-02-28T06:34:21;102221.20;;;21.40
67501;BMP180;54349;52.528;19.760;2023-02-28T06:36:51;102216.40;;;21.42
67501;BMP180;54349;52.528;19.760;2023-02-28T06:39:19;102213.00;;;21.50
67501;BMP180;54349;52.528;19.760;2023-02-28T06:41:48;102216.00;;;21.40
67501;BMP180;54349;52.528;19.760;2023-02-28T06:44:23;102218.40;;;21.50
67501;BMP180;54349;52.528;19.760;2023-02-28T06:46:51;102221.20;;;21.40
67501;BMP180;54349;52.528;19.760;2023-02-28T06:49:19;102219.20;;;21.40
67501;BMP180;54349;52.528;19.760;2023-02-28T06:51:48;102214.00;;;21.40
67501;BMP180;54349;52.528;19.760;2023-02-28T06:54:16;102211.00;;;21.40
67501;BMP180;54349;52.528;19.760;2023-02-28T06:56:44;102212.80;;;21.38
67501;BMP180;54349;52.528;19.760;2023-02-28T06:59:13;102216.00;;;21.32
67501;BMP180;54349;52.528;19.760;2023-02-28T07:01:41;102213.60;;;21.42
67501;BMP180;54349;52.528;19.760;2023-02-28T07:04:09;102208.00;;;21.32
67501;BMP180;54349;52.528;19.760;2023-02-28T07:06:38;102211.00;;;21.30
67501;BMP180;54349;52.528;19.760;2023-02-28T07:09:07;102205.60;;;21.40
67501;BMP180;54349;52.528;19.760;2023-02-28T07:11:36;102205.80;;;21.40
67501;BMP180;54349;52.528;19.760;2023-02-28T07:14:04;102204.40;;;21.40
67501;BMP180;54349;52.528;19.760;2023-02-28T07:16:33;102199.00;;;21.42
67501;BMP180;54349;52.528;19.760;2023-02-28T07:19:01;102200.60;;;21.50
67501;BMP180;54349;52.528;19.760;2023-02-28T07:21:30;102202.80;;;21.50
67501;BMP180;54349;52.528;19.760;2023-02-28T07:23:59;102208.80;;;21.60
67501;BMP180;54349;52.528;19.760;2023-02-28T07:26:28;102206.00;;;21.62
67501;BMP180;54349;52.528;19.760;2023-02-28T07:28:56;102205.40;;;21.70
67501;BMP180;54349;52.528;19.760;2023-02-28T07:31:25;102205.60;;;21.70
67501;BMP180;54349;52.528;19.760;2023-02-28T07:33:53;102206.60;;;21.70
67501;BMP180;54349;52.528;19.760;2023-02-28T07:36:22;102205.00;;;21.80
67501;BMP180;54349;52.528;19.760;2023-02-28T07:38:50;102204.00;;;21.80
67501;BMP180;54349;52.528;19.760;2023-02-28T07:41:21;102202.80;;;21.80
67501;BMP180;54349;52.528;19.760;2023-02-28T07:43:49;102203.60;;;21.88
67501;BMP180;54349;52.528;19.760;2023-02-28T07:46:19;102200.80;;;21.90
67501;BMP180;54349;52.528;19.760;2023-02-28T07:48:49;102202.60;;;21.90
67501;BMP180;54349;52.528;19.760;2023-02-28T07:51:18;102205.20;;;21.90
67501;BMP180;54349;52.528;19.760;2023-02-28T07:53:47;102210.20;;;21.90
67501;BMP180;54349;52.528;19.760;2023-02-28T07:56:16;102210.60;;;21.90
67501;BMP180;54349;52.528;19.760;2023-02-28T07:58:45;102206.80;;;21.98
67501;BMP180;54349;52.528;19.760;2023-02-28T08:01:14;102205.40;;;22.00
67501;BMP180;54349;52.528;19.760;2023-02-28T08:03:42;102210.00;;;22.00
67501;BMP180;54349;52.528;19.760;2023-02-28T08:06:22;102205.80;;;21.96
67501;BMP180;54349;52.528;19.760;2023-02-28T08:08:52;102207.60;;;21.90
67501;BMP180;54349;52.528;19.760;2023-02-28T08:11:21;102210.40;;;21.80
67501;BMP180;54349;52.528;19.760;2023-02-28T08:13:49;102208.40;;;21.80
67501;BMP180;54349;52.528;19.760;2023-02-28T08:16:18;102207.60;;;21.80
67501;BMP180;54349;52.528;19.760;2023-02-28T08:18:51;102210.00;;;21.82
67501;BMP180;54349;52.528;19.760;2023-02-28T08:21:21;102210.00;;;21.80
67501;BMP180;54349;52.528;19.760;2023-02-28T08:23:50;102207.80;;;21.80
67501;BMP180;54349;52.528;19.760;2023-02-28T08:26:20;102215.20;;;21.90
67501;BMP180;54349;52.528;19.760;2023-02-28T08:28:49;102216.20;;;21.90
67501;BMP180;54349;52.528;19.760;2023-02-28T08:31:18;102214.00;;;21.90
67501;BMP180;54349;52.528;19.760;2023-02-28T08:33:47;102215.60;;;21.90
67501;BMP180;54349;52.528;19.760;2023-02-28T08:36:20;102219.40;;;21.90
67501;BMP180;54349;52.528;19.760;2023-02-28T08:38:49;102222.60;;;21.92
67501;BMP180;54349;52.528;19.760;2023-02-28T08:41:18;102225.60;;;21.98
67501;BMP180;54349;52.528;19.760;2023-02-28T08:43:46;102226.20;;;22.00
67501;BMP180;54349;52.528;19.760;2023-02-28T08:46:14;102220.40;;;21.98
67501;BMP180;54349;52.528;19.760;2023-02-28T08:48:44;102224.20;;;21.94
67501;BMP180;54349;52.528;19.760;2023-02-28T08:51:17;102221.80;;;21.90
67501;BMP180;54349;52.528;19.760;2023-02-28T08:53:49;102222.40;;;21.90
67501;BMP180;54349;52.528;19.760;2023-02-28T08:56:18;102226.80;;;21.90
67501;BMP180;54349;52.528;19.760;2023-02-28T08:58:49;102226.60;;;21.90
67501;BMP180;54349;52.528;19.760;2023-02-28T09:01:23;102220.80;;;21.90
67501;BMP180;54349;52.528;19.760;2023-02-28T09:03:52;102221.80;;;21.90
67501;BMP180;54349;52.528;19.760;2023-02-28T09:06:24;102225.80;;;21.90
67501;BMP180;54349;52.528;19.760;2023-02-28T09:08:56;102227.60;;;21.90
67501;BMP180;54349;52.528;19.760;2023-02-28T09:11:27;102227.80;;;21.90
67501;BMP180;54349;52.528;19.760;2023-02-28T09:13:57;102226.80;;;21.90
67501;BMP180;54349;52.528;19.760;2023-02-28T09:16:27;102226.60;;;21.90
67501;BMP180;54349;52.528;19.760;2023-02-28T09:18:56;102232.40;;;21.90
67501;BMP180;54349;52.528;19.760;2023-02-28T09:21:26;102232.20;;;21.90
67501;BMP180;54349;52.528;19.760;2023-02-28T09:23:56;102229.40;;;21.88
67501;BMP180;54349;52.528;19.760;2023-02-28T09:26:27;102228.00;;;21.90
67501;BMP180;54349;52.528;19.760;2023-02-28T09:29:10;102232.60;;;21.90
67501;BMP180;54349;52.528;19.760;2023-02-28T09:31:38;102229.20;;;21.90
67501;BMP180;54349;52.528;19.760;2023-02-28T09:34:07;102230.00;;;21.90
67501;BMP180;54349;52.528;19.760;2023-02-28T09:36:36;102230.00;;;21.94
67501;BMP180;54349;52.528;19.760;2023-02-28T09:39:13;102228.00;;;21.90
67501;BMP180;54349;52.528;19.760;2023-02-28T09:41:51;102229.60;;;21.90
67501;BMP180;54349;52.528;19.760;2023-02-28T09:47:07;102236.20;;;21.90
67501;BMP180;54349;52.528;19.760;2023-02-28T09:49:42;102239.40;;;21.90
67501;BMP180;54349;52.528;19.760;2023-02-28T09:52:29;102234.60;;;21.90
67501;BMP180;54349;52.528;19.760;2023-02-28T09:55:22;102240.80;;;21.90
67501;BMP180;54349;52.528;19.760;2023-02-28T09:57:56;102237.80;;;21.90
67501;BMP180;54349;52.528;19.760;2023-02-28T10:00:38;102238.00;;;21.90
67501;BMP180;54349;52.528;19.760;2023-02-28T10:03:39;102239.80;;;22.00
67501;BMP180;54349;52.528;19.760;2023-02-28T10:06:14;102239.00;;;22.08
67501;BMP180;54349;52.528;19.760;2023-02-28T10:09:04;102246.80;;;22.00
67501;BMP180;54349;52.528;19.760;2023-02-28T10:11:37;102246.00;;;22.00
67501;BMP180;54349;52.528;19.760;2023-02-28T10:14:18;102238.40;;;22.00
67501;BMP180;54349;52.528;19.760;2023-02-28T10:17:10;102237.20;;;22.10
67501;BMP180;54349;52.528;19.760;2023-02-28T10:22:55;102236.20;;;22.18
67501;BMP180;54349;52.528;19.760;2023-02-28T10:25:29;102231.60;;;22.20
67501;BMP180;54349;52.528;19.760;2023-02-28T10:28:12;102236.40;;;22.20
67501;BMP180;54349;52.528;19.760;2023-02-28T10:30:52;102233.00;;;22.20
67501;BMP180;54349;52.528;19.760;2023-02-28T10:33:33;102233.60;;;22.20
67501;BMP180;54349;52.528;19.760;2023-02-28T10:36:05;102227.00;;;22.20
67501;BMP180;54349;52.528;19.760;2023-02-28T10:38:39;102226.40;;;22.20
67501;BMP180;54349;52.528;19.760;2023-02-28T10:41:14;102218.20;;;22.30
67501;BMP180;54349;52.528;19.760;2023-02-28T10:43:44;102213.40;;;22.30
67501;BMP180;54349;52.528;19.760;2023-02-28T10:46:19;102207.00;;;22.30
67501;BMP180;54349;52.528;19.760;2023-02-28T10:49:06;102212.40;;;22.30
67501;BMP180;54349;52.528;19.760;2023-02-28T10:51:40;102207.20;;;22.30
67501;BMP180;54349;52.528;19.760;2023-02-28T10:54:36;102202.00;;;22.30
67501;BMP180;54349;52.528;19.760;2023-02-28T10:57:16;102196.80;;;22.30
67501;BMP180;54349;52.528;19.760;2023-02-28T10:59:46;102193.00;;;22.30
67501;BMP180;54349;52.528;19.760;2023-02-28T11:02:35;102185.40;;;22.30
67501;BMP180;54349;52.528;19.760;2023-02-28T11:08:10;102178.40;;;22.30
67501;BMP180;54349;52.528;19.760;2023-02-28T11:10:44;102173.40;;;22.30
67501;BMP180;54349;52.528;19.760;2023-02-28T11:13:32;102168.80;;;22.30
67501;BMP180;54349;52.528;19.760;2023-02-28T11:16:09;102170.00;;;22.30
67501;BMP180;54349;52.528;19.760;2023-02-28T11:18:42;102170.20;;;22.30
67501;BMP180;54349;52.528;19.760;2023-02-28T11:21:24;102167.60;;;22.38
67501;BMP180;54349;52.528;19.760;2023-02-28T11:24:04;102169.20;;;22.40
67501;BMP180;54349;52.528;19.760;2023-02-28T11:26:44;102165.60;;;22.40
67501;BMP180;54349;52.528;19.760;2023-02-28T11:29:29;102164.60;;;22.40
67501;BMP180;54349;52.528;19.760;2023-02-28T11:32:12;102163.40;;;22.40
67501;BMP180;54349;52.528;19.760;2023-02-28T11:34:42;102163.20;;;22.30
67501;BMP180;54349;52.528;19.760;2023-02-28T11:37:18;102162.20;;;22.30
67501;BMP180;54349;52.528;19.760;2023-02-28T11:39:47;102168.80;;;22.20
67501;BMP180;54349;52.528;19.760;2023-02-28T11:48:21;102155.60;;;22.20
67501;BMP180;54349;52.528;19.760;2023-02-28T11:51:19;102161.80;;;22.20
67501;BMP180;54349;52.528;19.760;2023-02-28T11:54:35;102157.00;;;22.20
67501;BMP180;54349;52.528;19.760;2023-02-28T11:56:48;102159.80;;;22.22
67501;BMP180;54349;52.528;19.760;2023-02-28T12:09:53;102146.40;;;22.40
67501;BMP180;54349;52.528;19.760;2023-02-28T12:19:07;102136.00;;;22.60
67501;BMP180;54349;52.528;19.760;2023-02-28T12:22:03;102135.60;;;22.60
67501;BMP180;54349;52.528;19.760;2023-02-28T12:25:29;102136.00;;;22.64
67501;BMP180;54349;52.528;19.760;2023-02-28T12:28:10;102136.80;;;22.70
67501;BMP180;54349;52.528;19.760;2023-02-28T12:31:06;102141.60;;;22.70
67501;BMP180;54349;52.528;19.760;2023-02-28T12:33:48;102141.00;;;22.72
67501;BMP180;54349;52.528;19.760;2023-02-28T12:36:21;102141.40;;;22.80
67501;BMP180;54349;52.528;19.760;2023-02-28T12:42:00;102130.20;;;22.80
67501;BMP180;54349;52.528;19.760;2023-02-28T12:44:39;102128.60;;;22.86
67501;BMP180;54349;52.528;19.760;2023-02-28T12:47:17;102126.40;;;22.90
67501;BMP180;54349;52.528;19.760;2023-02-28T12:49:58;102118.00;;;22.90
67501;BMP180;54349;52.528;19.760;2023-02-28T12:52:59;102110.80;;;22.90
67501;BMP180;54349;52.528;19.760;2023-02-28T12:56:13;102107.80;;;22.98
67501;BMP180;54349;52.528;19.760;2023-02-28T12:58:54;102107.20;;;23.00
67501;BMP180;54349;52.528;19.760;2023-02-28T13:09:34;102094.00;;;23.08
67501;BMP180;54349;52.528;19.760;2023-02-28T13:12:16;102093.40;;;23.10
67501;BMP180;54349;52.528;19.760;2023-02-28T13:14:46;102091.20;;;23.10
67501;BMP180;54349;52.528;19.760;2023-02-28T13:17:22;102085.40;;;23.10
67501;BMP180;54349;52.528;19.760;2023-02-28T13:24:56;102082.40;;;23.20
67501;BMP180;54349;52.528;19.760;2023-02-28T13:27:53;102081.60;;;23.30
67501;BMP180;54349;52.528;19.760;2023-02-28T13:33:34;102076.00;;;23.38
67501;BMP180;54349;52.528;19.760;2023-02-28T13:38:58;102068.60;;;23.40
67501;BMP180;54349;52.528;19.760;2023-02-28T13:41:41;102072.40;;;23.40
67501;BMP180;54349;52.528;19.760;2023-02-28T13:44:21;102063.80;;;23.40
67501;BMP180;54349;52.528;19.760;2023-02-28T14:01:06;102049.80;;;23.40
67501;BMP180;54349;52.528;19.760;2023-02-28T14:06:29;102035.80;;;23.40
67501;BMP180;54349;52.528;19.760;2023-02-28T14:09:27;102032.80;;;23.40
67501;BMP180;54349;52.528;19.760;2023-02-28T14:11:56;102032.40;;;23.40
67501;BMP180;54349;52.528;19.760;2023-02-28T14:17:17;102031.40;;;23.40
67501;BMP180;54349;52.528;19.760;2023-02-28T14:19:47;102029.60;;;23.40
67501;BMP180;54349;52.528;19.760;2023-02-28T14:22:43;102030.40;;;23.40
67501;BMP180;54349;52.528;19.760;2023-02-28T14:31:32;102022.40;;;23.40
67501;BMP180;54349;52.528;19.760;2023-02-28T14:34:25;102023.00;;;23.40
67501;BMP180;54349;52.528;19.760;2023-02-28T14:37:00;102014.80;;;23.40
67501;BMP180;54349;52.528;19.760;2023-02-28T14:39:31;102016.60;;;23.40
67501;BMP180;54349;52.528;19.760;2023-02-28T14:42:00;102020.40;;;23.40
67501;BMP180;54349;52.528;19.760;2023-02-28T14:44:32;102018.60;;;23.40
67501;BMP180;54349;52.528;19.760;2023-02-28T14:47:04;102020.20;;;23.40
67501;BMP180;54349;52.528;19.760;2023-02-28T14:49:41;102022.00;;;23.40
67501;BMP180;54349;52.528;19.760;2023-02-28T14:52:26;102024.00;;;23.38
67501;BMP180;54349;52.528;19.760;2023-02-28T14:55:09;102016.20;;;23.32
67501;BMP180;54349;52.528;19.760;2023-02-28T14:57:51;102013.60;;;23.34
67501;BMP180;54349;52.528;19.760;2023-02-28T15:00:25;102012.20;;;23.30
67501;BMP180;54349;52.528;19.760;2023-02-28T15:02:56;102009.20;;;23.30
67501;BMP180;54349;52.528;19.760;2023-02-28T15:05:33;102011.80;;;23.30
67501;BMP180;54349;52.528;19.760;2023-02-28T15:08:15;102008.80;;;23.30
67501;BMP180;54349;52.528;19.760;2023-02-28T15:16:31;102007.80;;;23.30
67501;BMP180;54349;52.528;19.760;2023-02-28T15:19:08;102011.20;;;23.28
67501;BMP180;54349;52.528;19.760;2023-02-28T15:21:45;102009.40;;;23.24
67501;BMP180;54349;52.528;19.760;2023-02-28T15:24:23;102011.20;;;23.24
67501;BMP180;54349;52.528;19.760;2023-02-28T15:26:58;102019.60;;;23.26
67501;BMP180;54349;52.528;19.760;2023-02-28T15:29:30;102017.20;;;23.30
67501;BMP180;54349;52.528;19.760;2023-02-28T15:32:07;102012.20;;;23.30
67501;BMP180;54349;52.528;19.760;2023-02-28T15:34:39;102014.60;;;23.30
67501;BMP180;54349;52.528;19.760;2023-02-28T15:40:14;102014.60;;;23.30
67501;BMP180;54349;52.528;19.760;2023-02-28T15:43:18;102015.60;;;23.32
67501;BMP180;54349;52.528;19.760;2023-02-28T15:46:12;102017.00;;;23.34
67501;BMP180;54349;52.528;19.760;2023-02-28T15:48:55;102023.20;;;23.36
67501;BMP180;54349;52.528;19.760;2023-02-28T15:51:29;102025.20;;;23.30
67501;BMP180;54349;52.528;19.760;2023-02-28T15:54:08;102027.60;;;23.30
67501;BMP180;54349;52.528;19.760;2023-02-28T15:56:46;102017.20;;;23.30
67501;BMP180;54349;52.528;19.760;2023-02-28T15:59:21;102015.20;;;23.20
67501;BMP180;54349;52.528;19.760;2023-02-28T16:02:08;102010.20;;;23.20
67501;BMP180;54349;52.528;19.760;2023-02-28T16:07:30;102010.00;;;23.00
67501;BMP180;54349;52.528;19.760;2023-02-28T16:10:00;102009.60;;;23.00
67501;BMP180;54349;52.528;19.760;2023-02-28T16:12:33;102007.60;;;22.90
67501;BMP180;54349;52.528;19.760;2023-02-28T16:15:14;102007.60;;;22.90